Time;durP1;ratioP1;P1;durP2;ratioP2;P2;SDS_P1;SDS_P2;PMS_P1;PMS_P2;Temp;Humidity;BMP_temperature;BMP_pressure;BME280_temperature;BME280_humidity;BME280_pressure;Samples;Min_cycle;Max_cycle;Signal;HPM_P1;HPM_P2
2021/07/10 00:00:18;;;;;;;3.42;2.47;;;;;;;16.69;100.00;101123.04;1681958;84;21042;-45
2021/07/10 00:02:45;;;;;;;6.53;2.72;;;;;;;16.68;100.00;101121.38;1680249;85;21762;-49
2021/07/10 00:05:13;;;;;;;4.83;2.45;;;;;;;16.66;100.00;101119.48;1680176;85;21026;-50
2021/07/10 00:07:40;;;;;;;4.35;2.72;;;;;;;16.63;100.00;101120.10;1680597;83;21034;-50
2021/07/10 00:10:07;;;;;;;6.35;3.60;;;;;;;16.61;100.00;101117.39;1702807;84;21521;-49
2021/07/10 00:12:34;;;;;;;6.80;2.30;;;;;;;16.58;100.00;101111.92;1708689;83;21047;-49
2021/07/10 00:15:01;;;;;;;4.72;2.75;;;;;;;16.56;100.00;101113.59;1702244;84;21038;-49
2021/07/10 00:17:30;;;;;;;5.42;2.72;;;;;;;16.55;100.00;101113.91;1680013;84;21054;-45
2021/07/10 00:19:56;;;;;;;3.95;2.52;;;;;;;16.51;100.00;101108.73;1692982;84;21044;-49
2021/07/10 00:22:23;;;;;;;4.67;3.25;;;;;;;16.48;100.00;101110.73;1680075;85;21611;-49
2021/07/10 00:24:49;;;;;;;3.10;2.65;;;;;;;16.45;100.00;101121.00;1680190;85;21071;-50
2021/07/10 00:27:15;;;;;;;4.47;2.62;;;;;;;16.44;100.00;101116.58;1680290;84;21480;-45
2021/07/10 00:29:41;;;;;;;3.52;3.08;;;;;;;16.44;100.00;101117.39;1680200;85;21095;-50
2021/07/10 00:32:08;;;;;;;4.25;2.83;;;;;;;16.44;100.00;101113.25;1701638;84;21042;-43
2021/07/10 00:34:35;;;;;;;3.42;2.60;;;;;;;16.42;100.00;101110.00;1708678;84;21062;-44
2021/07/10 00:37:01;;;;;;;4.72;2.83;;;;;;;16.41;100.00;101108.35;1708257;84;21082;-49
2021/07/10 00:39:27;;;;;;;4.28;3.58;;;;;;;16.41;100.00;101110.30;1685874;84;21489;-44
2021/07/10 00:41:53;;;;;;;4.58;2.60;;;;;;;16.40;100.00;101105.91;1708579;84;20990;-43
2021/07/10 00:44:20;;;;;;;4.45;3.22;;;;;;;16.39;100.00;101104.27;1708865;83;21006;-43
2021/07/10 00:46:46;;;;;;;4.72;2.83;;;;;;;16.38;100.00;101099.88;1682883;84;21019;-49
2021/07/10 00:49:14;;;;;;;4.50;2.22;;;;;;;16.37;100.00;101101.82;1716480;83;21055;-43
2021/07/10 00:51:40;;;;;;;3.70;2.30;;;;;;;16.34;100.00;101106.01;1728978;82;21009;-43
2021/07/10 00:54:06;;;;;;;3.70;2.67;;;;;;;16.33;100.00;101104.34;1724209;83;21353;-49
2021/07/10 00:56:33;;;;;;;5.28;3.40;;;;;;;16.36;100.00;101107.63;1699757;84;21042;-49
2021/07/10 00:59:00;;;;;;;3.90;2.90;;;;;;;16.39;100.00;101102.88;1699967;83;21049;-49
2021/07/10 01:01:26;;;;;;;3.80;3.27;;;;;;;16.40;100.00;101103.16;1703481;83;20986;-49
2021/07/10 01:03:53;;;;;;;4.40;3.20;;;;;;;16.43;100.00;101103.36;1700058;83;20966;-49
2021/07/10 01:06:19;;;;;;;5.22;3.58;;;;;;;16.46;100.00;101105.50;1682576;84;21026;-44
2021/07/10 01:08:47;;;;;;;4.30;3.05;;;;;;;16.50;100.00;101102.97;1680262;85;21022;-45
2021/07/10 01:11:15;;;;;;;3.98;2.12;;;;;;;16.52;100.00;101106.25;1680299;85;21089;-50
2021/07/10 01:13:43;;;;;;;5.60;3.33;;;;;;;16.54;100.00;101103.98;1721738;83;21414;-43
2021/07/10 01:16:11;;;;;;;5.03;3.02;;;;;;;16.55;100.00;101105.06;1728616;82;21005;-44
2021/07/10 01:18:39;;;;;;;4.75;2.62;;;;;;;16.56;100.00;101104.50;1728852;82;21041;-49
2021/07/10 01:21:07;;;;;;;5.20;2.70;;;;;;;16.53;100.00;101104.55;1707357;82;21034;-49
2021/07/10 01:23:34;;;;;;;3.33;2.37;;;;;;;16.54;100.00;101103.45;1680026;85;21030;-45
2021/07/10 01:26:00;;;;;;;5.65;2.55;;;;;;;16.53;100.00;101102.36;1680183;84;21066;-43
2021/07/10 01:28:27;;;;;;;3.60;2.55;;;;;;;16.50;100.00;101103.78;1680335;85;21052;-44
2021/07/10 01:30:54;;;;;;;5.67;2.30;;;;;;;16.42;100.00;101099.51;1732837;81;20994;-44
2021/07/10 01:33:21;;;;;;;4.12;2.92;;;;;;;16.34;100.00;101096.89;1734407;82;21104;-49
2021/07/10 01:35:47;;;;;;;4.28;2.62;;;;;;;16.25;100.00;101103.67;1735372;82;20983;-49
2021/07/10 01:38:16;;;;;;;4.80;3.22;;;;;;;16.20;100.00;101107.90;1735374;81;20991;-49
2021/07/10 01:40:43;;;;;;;3.67;2.75;;;;;;;16.16;100.00;101110.98;1735421;81;20990;-50
2021/07/10 01:43:09;;;;;;;4.17;2.35;;;;;;;16.14;100.00;101104.95;1735367;82;20979;-49
2021/07/10 01:45:36;;;;;;;3.85;2.50;;;;;;;16.12;100.00;101098.37;1747916;81;21137;-44
2021/07/10 01:48:04;;;;;;;3.87;2.55;;;;;;;16.10;100.00;101097.04;1687780;84;21006;-45
2021/07/10 01:50:30;;;;;;;4.12;2.52;;;;;;;16.08;100.00;101093.76;1693536;83;20981;-49
2021/07/10 01:52:58;;;;;;;4.62;2.50;;;;;;;16.05;100.00;101092.99;1732981;82;21899;-43
2021/07/10 01:55:25;;;;;;;3.52;2.20;;;;;;;16.02;100.00;101094.95;1735346;82;21445;-49
2021/07/10 01:57:53;;;;;;;3.52;2.62;;;;;;;16.02;100.00;101097.70;1735856;81;21053;-43
2021/07/10 02:00:27;;;;;;;2.87;2.50;;;;;;;16.00;100.00;101099.40;1735572;82;21080;-49
2021/07/10 02:02:55;;;;;;;2.90;2.22;;;;;;;15.96;100.00;101102.48;1735594;81;20990;-44
2021/07/10 02:05:24;;;;;;;3.25;2.30;;;;;;;15.93;100.00;101101.72;1735358;81;21372;-45
2021/07/10 02:07:51;;;;;;;3.72;2.25;;;;;;;15.92;100.00;101101.44;1750350;81;21422;-43
2021/07/10 02:10:19;;;;;;;3.65;2.37;;;;;;;15.92;100.00;101100.06;1765410;80;20952;-44
2021/07/10 02:12:50;;;;;;;3.05;2.50;;;;;;;15.91;100.00;101103.38;1762152;81;21831;-49
2021/07/10 02:15:17;;;;;;;3.15;2.33;;;;;;;15.89;100.00;101104.23;1762478;81;21030;-49
2021/07/10 02:17:44;;;;;;;5.30;2.90;;;;;;;15.87;100.00;101107.87;1738500;81;21085;-43
2021/07/10 02:20:17;;;;;;;4.90;2.55;;;;;;;15.87;100.00;101106.50;1729542;82;20995;-43
2021/07/10 02:22:44;;;;;;;4.35;3.27;;;;;;;15.88;100.00;101108.12;1705569;83;21043;-44
2021/07/10 02:25:12;;;;;;;4.53;2.15;;;;;;;15.88;100.00;101100.42;1730543;81;21054;-49
2021/07/10 02:27:39;;;;;;;3.65;2.15;;;;;;;15.89;100.00;101106.98;1757498;81;20994;-49
2021/07/10 02:30:12;;;;;;;3.20;2.40;;;;;;;15.91;100.00;101103.95;1757480;81;21913;-49
2021/07/10 02:32:39;;;;;;;2.67;2.10;;;;;;;15.91;100.00;101097.87;1757955;81;20979;-50
2021/07/10 02:35:08;;;;;;;2.45;2.25;;;;;;;15.94;100.00;101090.94;1743762;81;21461;-44
2021/07/10 02:37:36;;;;;;;4.08;2.40;;;;;;;15.97;100.00;101088.14;1726495;83;20987;-49
2021/07/10 02:40:05;;;;;;;2.52;2.27;;;;;;;16.01;100.00;101083.67;1726898;83;21011;-50
2021/07/10 02:42:31;;;;;;;3.10;2.80;;;;;;;16.06;100.00;101083.02;1727066;83;21412;-49
2021/07/10 02:44:59;;;;;;;3.20;2.45;;;;;;;16.11;100.00;101082.13;1750238;81;21010;-44
2021/07/10 02:47:25;;;;;;;3.50;2.80;;;;;;;16.15;100.00;101081.79;1754433;81;21437;-49
2021/07/10 02:49:52;;;;;;;2.52;2.02;;;;;;;16.18;100.00;101077.05;1757317;81;21015;-50
2021/07/10 02:52:18;;;;;;;7.15;2.47;;;;;;;16.25;100.00;101073.34;1756137;80;21003;-44
2021/07/10 02:54:45;;;;;;;4.08;2.65;;;;;;;16.34;100.00;101081.19;1727177;82;21451;-43
2021/07/10 02:57:11;;;;;;;5.40;3.40;;;;;;;16.41;100.00;101078.02;1726734;83;21031;-45
2021/07/10 02:59:40;;;;;;;3.20;2.37;;;;;;;16.46;100.00;101075.16;1726698;83;20976;-45
2021/07/10 03:02:08;;;;;;;4.28;2.90;;;;;;;16.52;100.00;101073.96;1727228;81;20990;-43
2021/07/10 03:04:35;;;;;;;5.12;2.83;;;;;;;16.60;100.00;101074.37;1727282;83;21529;-50
2021/07/10 03:07:02;;;;;;;4.15;2.75;;;;;;;16.66;100.00;101078.09;1727080;83;20998;-49
2021/07/10 03:09:30;;;;;;;6.78;3.22;;;;;;;16.74;100.00;101073.27;1727000;83;20971;-49
2021/07/10 03:11:56;;;;;;;4.65;2.30;;;;;;;16.83;100.00;101069.25;1745273;81;20966;-43
2021/07/10 03:14:23;;;;;;;3.27;2.98;;;;;;;16.92;100.00;101071.56;1757191;80;21583;-43
2021/07/10 03:16:49;;;;;;;5.45;3.58;;;;;;;17.03;100.00;101065.26;1757524;80;21003;-49
2021/07/10 03:19:16;;;;;;;2.72;2.47;;;;;;;17.17;100.00;101064.69;1760306;80;21038;-49
2021/07/10 03:21:45;;;;;;;5.65;3.40;;;;;;;17.32;100.00;101062.16;1760607;80;20968;-48
2021/07/10 03:24:11;;;;;;;5.90;3.20;;;;;;;17.47;100.00;101063.76;1765810;80;20994;-43
2021/07/10 03:26:37;;;;;;;3.85;3.12;;;;;;;17.62;100.00;101055.68;1765832;81;20990;-48
2021/07/10 03:29:04;;;;;;;3.67;3.10;;;;;;;17.77;100.00;101054.50;1761009;81;21006;-43
2021/07/10 03:31:30;;;;;;;3.02;2.70;;;;;;;17.90;100.00;101052.27;1735231;82;21509;-44
2021/07/10 03:33:57;;;;;;;5.70;3.00;;;;;;;18.08;100.00;101055.17;1735348;82;21026;-50
2021/07/10 03:36:26;;;;;;;6.00;3.80;;;;;;;18.26;100.00;101048.61;1735477;82;21467;-49
2021/07/10 03:38:54;;;;;;;4.35;3.05;;;;;;;18.43;100.00;101050.66;1735586;81;21026;-44
2021/07/10 03:41:21;;;;;;;5.33;3.27;;;;;;;18.57;100.00;101051.92;1737416;81;20911;-49
2021/07/10 03:43:50;;;;;;;6.12;3.52;;;;;;;18.73;100.00;101058.68;1688103;84;21045;-50
2021/07/10 03:46:16;;;;;;;11.38;3.37;;;;;;;18.93;100.00;101050.97;1712856;82;20994;-44
2021/07/10 03:48:42;;;;;;;4.95;3.67;;;;;;;19.07;100.00;101059.40;1687471;84;21057;-44
2021/07/10 03:51:10;;;;;;;4.95;3.75;;;;;;;19.23;100.00;101059.75;1735274;82;20994;-43
2021/07/10 03:53:36;;;;;;;4.28;3.17;;;;;;;19.57;100.00;101052.62;1685398;84;21426;-44
2021/07/10 03:56:03;;;;;;;4.65;3.30;;;;;;;19.77;100.00;101056.73;1735088;82;21053;-45
2021/07/10 03:58:31;;;;;;;7.08;4.00;;;;;;;19.77;100.00;101056.73;1735316;82;21069;-44
2021/07/10 04:00:58;;;;;;;4.50;3.70;;;;;;;19.97;100.00;101053.85;1734948;82;21064;-50
2021/07/10 04:03:24;;;;;;;7.42;3.92;;;;;;;20.14;100.00;101060.76;1735098;82;20994;-50
2021/07/10 04:05:50;;;;;;;5.45;4.22;;;;;;;20.29;100.00;101054.45;1735181;82;21048;-44
2021/07/10 04:08:17;;;;;;;7.65;4.20;;;;;;;20.44;100.00;101062.81;1735378;82;20990;-44
2021/07/10 04:10:43;;;;;;;6.60;4.25;;;;;;;20.50;100.00;101055.38;1735229;82;20899;-45
2021/07/10 04:13:11;;;;;;;5.25;3.42;;;;;;;20.56;100.00;101061.00;1735780;82;20987;-50
2021/07/10 04:15:39;;;;;;;4.75;3.77;;;;;;;20.65;100.00;101067.09;1742797;81;20943;-49
2021/07/10 04:18:06;;;;;;;6.45;4.20;;;;;;;20.73;100.00;101057.92;1688332;84;21010;-49
2021/07/10 04:20:32;;;;;;;6.35;3.80;;;;;;;20.83;100.00;101056.97;1744781;79;21181;-44
2021/07/10 04:22:59;;;;;;;4.53;3.80;;;;;;;20.96;100.00;101059.27;1741247;81;20986;-45
2021/07/10 04:25:25;;;;;;;4.85;3.20;;;;;;;21.10;100.00;101058.23;1727106;82;21868;-45
2021/07/10 04:27:53;;;;;;;7.28;3.83;;;;;;;21.25;100.00;101054.86;1727039;83;21050;-49
2021/07/10 04:30:19;;;;;;;3.22;2.85;;;;;;;21.44;100.00;101053.86;1727056;83;20998;-50
2021/07/10 04:32:46;;;;;;;5.20;3.30;;;;;;;21.65;100.00;101053.84;1729399;81;21030;-44
2021/07/10 04:35:13;;;;;;;5.62;3.22;;;;;;;21.85;99.33;101056.95;1726809;82;20986;-50
2021/07/10 04:37:39;;;;;;;5.45;3.17;;;;;;;22.04;98.62;101058.66;1732676;81;21539;-45
2021/07/10 04:40:07;;;;;;;5.45;4.35;;;;;;;22.23;97.34;101056.78;1741999;81;21026;-49
2021/07/10 04:42:34;;;;;;;3.80;2.85;;;;;;;22.43;95.99;101055.09;1735872;81;21540;-49
2021/07/10 04:45:05;;;;;;;4.70;3.30;;;;;;;22.60;93.79;101060.20;1757363;81;20990;-45
2021/07/10 04:47:33;;;;;;;5.37;3.10;;;;;;;22.74;93.00;101050.34;1757090;81;20972;-45
2021/07/10 04:49:59;;;;;;;5.75;2.92;;;;;;;22.93;92.22;101047.58;1757297;81;21426;-50
2021/07/10 04:52:28;;;;;;;6.37;3.27;;;;;;;23.10;91.17;101040.98;1707070;84;21036;-49
2021/07/10 04:54:55;;;;;;;3.62;2.60;;;;;;;23.26;90.54;101040.47;1695704;84;21034;-46
2021/07/10 04:57:22;;;;;;;4.40;3.25;;;;;;;23.43;89.26;101037.19;1680232;84;21029;-44
2021/07/10 04:59:48;;;;;;;4.35;2.90;;;;;;;23.59;88.22;101038.89;1654628;85;21583;-45
2021/07/10 05:02:14;;;;;;;4.67;3.12;;;;;;;23.75;86.53;101038.97;1756011;80;20989;-49
2021/07/10 05:04:40;;;;;;;5.03;3.00;;;;;;;23.90;85.60;101037.39;1775995;80;20982;-44
2021/07/10 05:07:07;;;;;;;5.30;3.33;;;;;;;24.06;84.40;101036.05;1687870;84;21013;-44
2021/07/10 05:09:33;;;;;;;4.92;3.00;;;;;;;24.22;83.26;101029.09;1700108;83;20995;-50
2021/07/10 05:12:00;;;;;;;4.72;3.27;;;;;;;24.35;81.58;101031.22;1687450;84;21023;-45
2021/07/10 05:14:27;;;;;;;6.45;3.45;;;;;;;24.46;80.70;101030.95;1681152;83;21031;-49
2021/07/10 05:16:54;;;;;;;6.35;3.52;;;;;;;24.62;80.01;101028.14;1708691;83;21018;-50
2021/07/10 05:19:22;;;;;;;4.22;2.95;;;;;;;24.79;79.52;101036.75;1736185;82;21033;-50
2021/07/10 05:21:49;;;;;;;5.03;3.58;;;;;;;25.00;78.81;101033.64;1745178;81;20989;-49
2021/07/10 05:24:16;;;;;;;4.28;3.20;;;;;;;25.15;76.53;101030.58;1745321;81;21033;-44
2021/07/10 05:26:42;;;;;;;3.37;2.52;;;;;;;25.21;75.06;101028.58;1742727;81;21320;-49
2021/07/10 05:29:08;;;;;;;6.55;3.02;;;;;;;25.29;75.04;101030.34;1749556;81;21473;-50
2021/07/10 05:31:36;;;;;;;3.92;2.90;;;;;;;25.42;73.08;101024.62;1757424;81;21421;-49
2021/07/10 05:34:03;;;;;;;3.72;2.87;;;;;;;25.47;71.88;101025.16;1757451;81;21027;-45
2021/07/10 05:36:29;;;;;;;4.75;2.67;;;;;;;25.51;70.84;101026.02;1757337;81;20967;-50
2021/07/10 05:38:57;;;;;;;3.70;2.65;;;;;;;25.61;71.14;101030.23;1757428;80;20975;-45
2021/07/10 05:41:23;;;;;;;4.58;2.67;;;;;;;25.72;70.72;101022.88;1751883;81;20975;-49
2021/07/10 05:43:50;;;;;;;4.87;2.50;;;;;;;25.85;70.74;101024.13;1727103;83;20999;-50
2021/07/10 05:46:18;;;;;;;4.75;2.27;;;;;;;25.97;69.38;101018.39;1741952;81;21038;-50
2021/07/10 05:48:45;;;;;;;4.55;2.87;;;;;;;26.11;68.80;101018.67;1732344;81;21442;-50
2021/07/10 05:51:11;;;;;;;3.05;2.10;;;;;;;26.25;68.24;101018.09;1739958;80;21045;-50
2021/07/10 05:53:38;;;;;;;4.03;1.92;;;;;;;26.36;68.46;101021.11;1756449;80;20992;-45
2021/07/10 05:56:04;;;;;;;3.50;2.40;;;;;;;26.49;67.25;101019.72;1741852;81;21010;-50
2021/07/10 05:58:31;;;;;;;2.87;2.40;;;;;;;26.63;65.73;101018.37;1676812;85;21050;-50
2021/07/10 06:00:57;;;;;;;2.85;2.27;;;;;;;26.76;66.58;101015.59;1676557;85;20950;-44
2021/07/10 06:03:24;;;;;;;3.47;2.35;;;;;;;26.92;65.57;101018.23;1679961;84;21082;-44
2021/07/10 06:05:50;;;;;;;2.45;1.65;;;;;;;27.03;64.74;101014.41;1727261;82;21081;-50
2021/07/10 06:08:17;;;;;;;3.17;2.05;;;;;;;27.17;64.39;101014.38;1726972;83;20998;-44
2021/07/10 06:10:43;;;;;;;4.08;2.12;;;;;;;27.31;64.10;101009.00;1726922;83;20974;-49
2021/07/10 06:13:10;;;;;;;2.95;2.37;;;;;;;27.45;62.68;101002.18;1729776;80;21062;-50
2021/07/10 06:15:37;;;;;;;3.08;1.98;;;;;;;27.58;61.29;101006.14;1694926;83;21421;-50
2021/07/10 06:18:04;;;;;;;2.98;2.17;;;;;;;27.67;61.13;101008.06;1705030;83;21073;-50
2021/07/10 06:20:30;;;;;;;3.62;2.22;;;;;;;27.81;61.60;100999.78;1686697;84;21058;-45
2021/07/10 06:22:58;;;;;;;2.22;1.95;;;;;;;27.90;59.43;101000.92;1693007;83;21606;-45
2021/07/10 06:25:24;;;;;;;3.12;1.98;;;;;;;27.94;60.30;101001.75;1720301;83;21045;-44
2021/07/10 06:27:50;;;;;;;1.87;1.45;;;;;;;28.07;60.54;101005.92;1720081;83;20987;-49
2021/07/10 06:30:18;;;;;;;3.47;2.35;;;;;;;28.21;59.74;101006.64;1705469;83;21002;-45
2021/07/10 06:32:45;;;;;;;3.27;2.27;;;;;;;28.38;58.11;101000.17;1691406;84;21440;-43
2021/07/10 06:35:12;;;;;;;2.42;1.57;;;;;;;28.48;57.65;100996.67;1691579;84;20998;-50
2021/07/10 06:37:39;;;;;;;3.98;2.05;;;;;;;28.57;58.61;100993.55;1694541;83;21501;-49
2021/07/10 06:40:07;;;;;;;3.15;1.77;;;;;;;28.66;58.43;100993.42;1703124;83;21420;-44
2021/07/10 06:42:33;;;;;;;2.90;1.95;;;;;;;28.76;57.58;100993.87;1720141;83;21014;-49
2021/07/10 06:45:00;;;;;;;1.98;1.87;;;;;;;28.86;57.30;100995.37;1718221;83;21002;-44
2021/07/10 06:47:26;;;;;;;2.95;2.10;;;;;;;28.96;55.00;100998.05;1674419;83;20995;-44
2021/07/10 06:49:52;;;;;;;3.77;2.17;;;;;;;29.00;54.95;100998.85;1671925;84;21050;-46
2021/07/10 06:52:19;;;;;;;2.85;2.22;;;;;;;29.05;54.99;100997.07;1674400;84;21083;-45
2021/07/10 06:54:45;;;;;;;3.50;2.15;;;;;;;29.13;54.48;100995.97;1693145;84;21555;-47
2021/07/10 06:57:11;;;;;;;3.05;2.10;;;;;;;29.23;55.30;100999.20;1684933;84;21007;-44
2021/07/10 06:59:38;;;;;;;2.22;1.80;;;;;;;29.38;53.96;100995.28;1696199;84;21042;-44
2021/07/10 07:02:05;;;;;;;4.55;2.25;;;;;;;29.48;54.29;100995.92;1697353;84;21114;-44
2021/07/10 07:04:31;;;;;;;2.27;1.85;;;;;;;29.58;53.08;101007.83;1672497;84;21091;-50
2021/07/10 07:06:59;;;;;;;2.90;2.35;;;;;;;29.67;53.59;101008.08;1672053;84;21007;-50
2021/07/10 07:09:26;;;;;;;2.60;2.08;;;;;;;29.79;52.85;101007.11;1672383;84;21034;-50
2021/07/10 07:11:52;;;;;;;2.75;1.77;;;;;;;29.91;53.16;101003.73;1678867;84;21022;-46
2021/07/10 07:14:19;;;;;;;4.42;2.10;;;;;;;30.06;52.26;101003.16;1662419;85;21389;-45
2021/07/10 07:16:46;;;;;;;3.47;2.22;;;;;;;30.14;52.71;101001.38;1672986;85;21447;-44
2021/07/10 07:19:13;;;;;;;2.37;2.17;;;;;;;30.19;51.80;101001.55;1679339;84;21014;-49
2021/07/10 07:21:40;;;;;;;2.62;1.92;;;;;;;30.19;50.35;101005.78;1681808;84;21073;-45
2021/07/10 07:24:06;;;;;;;2.12;1.92;;;;;;;30.07;50.02;101000.53;1745624;80;21408;-44
2021/07/10 07:26:34;;;;;;;4.47;2.30;;;;;;;30.03;51.63;101003.36;1743468;82;20998;-50
2021/07/10 07:29:00;;;;;;;3.40;2.33;;;;;;;30.13;51.96;101008.80;1737733;81;21002;-45
2021/07/10 07:31:27;;;;;;;4.25;2.50;;;;;;;30.28;49.24;101006.23;1735564;81;21457;-50
2021/07/10 07:33:55;;;;;;;2.80;2.45;;;;;;;30.24;49.64;101002.56;1762619;81;20907;-45
2021/07/10 07:36:21;;;;;;;3.45;2.02;;;;;;;30.30;50.29;101005.23;1743549;81;21500;-46
2021/07/10 07:38:47;;;;;;;2.85;1.87;;;;;;;30.40;49.90;101003.02;1645030;86;21019;-46
2021/07/10 07:41:14;;;;;;;3.05;2.20;;;;;;;30.48;49.45;100997.38;1735400;82;20982;-50
2021/07/10 07:43:40;;;;;;;2.83;1.60;;;;;;;30.58;50.41;101006.44;1736254;81;21057;-46
2021/07/10 07:46:09;;;;;;;2.20;1.75;;;;;;;30.76;49.94;101004.42;1692858;83;21022;-45
2021/07/10 07:48:35;;;;;;;1.90;1.60;;;;;;;30.98;48.53;101001.58;1729451;82;20914;-50
2021/07/10 07:51:02;;;;;;;1.80;1.60;;;;;;;31.20;47.79;101004.54;1681828;83;21408;-46
2021/07/10 07:53:29;;;;;;;4.22;2.00;;;;;;;31.40;47.18;100998.45;1752071;81;21049;-45
2021/07/10 07:55:55;;;;;;;3.85;1.67;;;;;;;31.54;45.04;100996.19;1742002;81;21069;-49
2021/07/10 07:58:22;;;;;;;3.12;1.90;;;;;;;31.56;46.70;100996.59;1735781;81;21057;-45
2021/07/10 08:00:48;;;;;;;2.65;1.67;;;;;;;31.67;45.93;100994.50;1737455;81;21014;-45
2021/07/10 08:03:15;;;;;;;2.12;1.82;;;;;;;31.73;45.71;101000.52;1751396;81;21453;-44
2021/07/10 08:05:41;;;;;;;2.62;2.25;;;;;;;31.85;45.96;100998.63;1758693;81;21101;-45
2021/07/10 08:08:10;;;;;;;1.95;1.75;;;;;;;31.98;45.17;100999.01;1735348;81;21848;-45
2021/07/10 08:10:37;;;;;;;3.02;1.70;;;;;;;32.10;45.41;101001.34;1737290;81;21336;-51
2021/07/10 08:13:04;;;;;;;3.75;2.10;;;;;;;32.20;44.98;101006.73;1746046;81;21409;-50
2021/07/10 08:15:31;;;;;;;2.40;2.20;;;;;;;32.26;44.59;101006.47;1727596;81;21086;-45
2021/07/10 08:17:59;;;;;;;2.22;1.62;;;;;;;32.27;44.24;101003.24;1764948;81;20983;-50
2021/07/10 08:20:27;;;;;;;4.83;2.37;;;;;;;32.25;41.72;101001.44;1680708;83;21448;-45
2021/07/10 08:22:54;;;;;;;2.45;1.92;;;;;;;32.12;42.80;101004.55;1695191;83;21006;-45
2021/07/10 08:25:21;;;;;;;3.15;2.10;;;;;;;31.98;42.33;101001.84;1727299;82;20999;-49
2021/07/10 08:27:47;;;;;;;2.30;2.10;;;;;;;31.86;43.00;100993.19;1730175;81;21435;-50
2021/07/10 08:30:15;;;;;;;2.40;1.92;;;;;;;31.89;43.19;100998.80;1730285;81;21602;-50
2021/07/10 08:32:46;;;;;;;2.05;1.85;;;;;;;32.02;43.06;101001.19;1727411;81;20983;-45
2021/07/10 08:35:14;;;;;;;1.75;1.65;;;;;;;32.09;38.37;100998.31;1728560;81;21031;-50
2021/07/10 08:37:40;;;;;;;3.08;2.00;;;;;;;32.11;40.02;101000.92;1729128;81;21042;-47
2021/07/10 08:40:08;;;;;;;3.02;1.85;;;;;;;32.17;40.31;101001.89;1727431;81;20991;-50
2021/07/10 08:42:34;;;;;;;1.98;1.62;;;;;;;32.17;39.92;101001.89;1730919;81;21058;-48
2021/07/10 08:45:06;;;;;;;2.42;1.77;;;;;;;32.24;41.78;100999.02;1730482;80;20995;-50
2021/07/10 08:47:35;;;;;;;2.55;1.82;;;;;;;32.35;41.30;100996.92;1727661;81;21010;-46
2021/07/10 08:50:04;;;;;;;3.20;2.12;;;;;;;32.46;40.87;100997.61;1681458;84;21504;-50
2021/07/10 08:52:33;;;;;;;1.95;1.85;;;;;;;32.65;41.29;100990.62;1728222;81;21015;-47
2021/07/10 08:54:59;;;;;;;2.30;2.00;;;;;;;32.86;41.41;100994.45;1763449;80;21034;-45
2021/07/10 08:57:26;;;;;;;3.37;1.85;;;;;;;33.05;40.21;100987.41;1735365;81;20983;-45
2021/07/10 08:59:53;;;;;;;3.15;1.98;;;;;;;33.17;41.16;100988.28;1733226;81;21018;-50
2021/07/10 09:02:19;;;;;;;2.20;2.00;;;;;;;33.29;40.25;100984.91;1729025;81;20991;-45
2021/07/10 09:04:45;;;;;;;2.20;2.00;;;;;;;33.31;40.29;100985.87;1733811;81;21465;-50
2021/07/10 09:07:12;;;;;;;3.50;2.30;;;;;;;33.33;40.42;100981.39;1732930;81;21410;-50
2021/07/10 09:09:45;;;;;;;4.47;2.20;;;;;;;33.46;39.83;100983.66;1662073;82;21046;-51
2021/07/10 09:12:13;;;;;;;2.42;1.95;;;;;;;33.53;39.91;100990.66;1704749;82;21034;-45
2021/07/10 09:14:41;;;;;;;2.60;2.35;;;;;;;33.48;36.09;100986.27;1680526;83;21527;-50
2021/07/10 09:17:19;;;;;;;5.08;2.80;;;;;;;33.36;38.58;100987.65;1742603;81;21009;-51
2021/07/10 09:19:47;;;;;;;3.00;2.05;;;;;;;33.43;38.44;100983.11;1743469;81;21027;-46
2021/07/10 09:22:29;;;;;;;5.10;3.98;;;;;;;33.52;38.62;100984.81;1746915;80;21439;-50
2021/07/10 09:24:58;;;;;;;3.17;1.87;;;;;;;33.64;38.96;100980.03;1676940;83;21033;-45
2021/07/10 09:27:24;;;;;;;5.58;3.50;;;;;;;33.73;37.60;100979.48;1735063;81;20991;-50
2021/07/10 09:29:52;;;;;;;2.10;1.90;;;;;;;33.74;39.10;100972.61;1746223;81;20983;-45
2021/07/10 09:32:21;;;;;;;5.20;2.22;;;;;;;33.71;37.33;100972.84;1726918;82;20975;-50
2021/07/10 09:34:53;;;;;;;2.83;1.90;;;;;;;33.52;36.57;100970.66;1731524;81;21024;-50
2021/07/10 09:37:24;;;;;;;3.27;2.30;;;;;;;33.34;38.33;100970.27;1754848;81;20991;-51
2021/07/10 09:40:10;;;;;;;2.45;2.10;;;;;;;33.35;38.73;100974.70;1757147;81;20976;-45
2021/07/10 09:42:40;;;;;;;4.08;2.10;;;;;;;33.32;38.03;100973.34;1757569;81;20987;-50
2021/07/10 09:45:10;;;;;;;2.10;1.90;;;;;;;33.28;37.30;100973.38;1725532;81;21039;-45
2021/07/10 09:47:37;;;;;;;3.07;2.13;;;;;;;33.17;36.59;100969.27;1746328;81;21424;-45
2021/07/10 09:50:06;;;;;;;3.02;2.25;;;;;;;32.95;37.84;100963.63;1757597;80;21584;-47
2021/07/10 09:52:35;;;;;;;3.75;2.60;;;;;;;32.80;38.00;100969.27;1717104;81;20990;-46
2021/07/10 09:55:11;;;;;;;4.42;2.55;;;;;;;32.61;39.29;100969.23;1680512;84;20999;-50
2021/07/10 09:57:40;;;;;;;3.50;2.25;;;;;;;32.55;40.12;100966.86;1706311;83;21020;-50
2021/07/10 10:00:13;;;;;;;3.40;1.67;;;;;;;32.64;38.50;100970.63;1752776;81;20988;-46
2021/07/10 10:02:53;;;;;;;3.65;2.30;;;;;;;32.66;39.51;100966.75;1734250;81;21388;-50
2021/07/10 10:05:21;;;;;;;3.37;2.45;;;;;;;32.60;37.98;100962.78;1748859;81;21015;-45
2021/07/10 10:07:52;;;;;;;3.85;2.00;;;;;;;32.52;38.54;100966.30;1743974;81;21398;-45
2021/07/10 10:10:34;;;;;;;2.50;1.95;;;;;;;32.46;39.02;100967.12;1733928;81;21499;-45
2021/07/10 10:13:11;;;;;;;3.58;2.12;;;;;;;32.44;40.12;100970.36;1746566;81;20999;-45
2021/07/10 10:15:52;;;;;;;3.35;2.25;;;;;;;32.44;39.12;100961.88;1751021;81;21039;-46
2021/07/10 10:18:22;;;;;;;3.12;2.20;;;;;;;32.50;38.95;100964.48;1749966;81;20983;-45
2021/07/10 10:20:50;;;;;;;2.75;1.92;;;;;;;32.54;38.61;100964.44;1738270;81;21077;-50
2021/07/10 10:23:17;;;;;;;2.58;2.15;;;;;;;32.52;39.03;100963.47;1772710;80;21906;-50
2021/07/10 10:25:45;;;;;;;3.33;2.02;;;;;;;32.47;38.72;100963.89;1765579;81;21586;-50
2021/07/10 10:28:19;;;;;;;3.33;2.25;;;;;;;32.45;38.46;100959.25;1762148;81;21477;-50
2021/07/10 10:30:50;;;;;;;4.47;2.50;;;;;;;32.46;38.56;100956.61;1743484;81;20977;-46
2021/07/10 10:33:17;;;;;;;2.77;1.93;;;;;;;32.50;38.85;100957.42;1750886;81;20941;-47
2021/07/10 10:35:46;;;;;;;3.17;2.17;;;;;;;32.52;40.15;100953.56;1759645;81;22188;-50
2021/07/10 10:38:13;;;;;;;4.12;2.10;;;;;;;32.52;37.93;100949.32;1764724;80;20982;-50
2021/07/10 10:40:40;;;;;;;3.47;1.95;;;;;;;32.50;39.33;100946.11;1759067;81;21010;-50
2021/07/10 10:43:06;;;;;;;2.77;1.80;;;;;;;32.56;38.28;100951.48;1741183;81;21018;-46
2021/07/10 10:45:35;;;;;;;2.70;2.22;;;;;;;32.62;40.23;100948.20;1673412;84;21213;-50
2021/07/10 10:48:04;;;;;;;2.52;1.77;;;;;;;32.77;40.02;100942.61;1708930;83;21635;-48
2021/07/10 10:50:34;;;;;;;3.12;2.17;;;;;;;32.94;39.52;100950.09;1695693;83;21034;-47
2021/07/10 10:53:02;;;;;;;2.40;1.72;;;;;;;33.05;38.10;100938.67;1722266;83;21396;-46
2021/07/10 10:55:34;;;;;;;3.65;2.22;;;;;;;33.09;39.03;100932.36;1727211;83;20997;-50
2021/07/10 10:58:26;;;;;;;2.65;2.33;;;;;;;33.25;38.92;100936.00;1735071;82;20986;-50
2021/07/10 11:01:00;;;;;;;2.90;2.07;;;;;;;33.46;37.99;100925.60;1730024;81;21026;-45
2021/07/10 11:03:36;;;;;;;2.92;2.33;;;;;;;33.60;37.09;100928.27;1687655;84;20990;-45
2021/07/10 11:06:03;;;;;;;4.15;2.45;;;;;;;33.62;37.36;100924.40;1734881;81;21026;-50
2021/07/10 11:08:38;;;;;;;3.58;2.42;;;;;;;33.66;36.86;100920.11;1735502;81;20990;-45
2021/07/10 11:11:10;;;;;;;3.02;2.15;;;;;;;33.71;36.70;100919.63;1740663;81;21035;-50
2021/07/10 11:13:39;;;;;;;4.72;2.52;;;;;;;33.74;36.56;100918.14;1726568;82;21002;-50
2021/07/10 11:16:15;;;;;;;3.08;2.60;;;;;;;33.82;36.24;100922.47;1747339;81;20986;-46
2021/07/10 11:19:06;;;;;;;3.75;2.40;;;;;;;33.93;36.04;100918.66;1760060;81;21003;-45
2021/07/10 11:21:38;;;;;;;3.00;2.10;;;;;;;34.04;34.76;100910.79;1760268;80;21026;-50
2021/07/10 11:24:22;;;;;;;3.27;2.90;;;;;;;34.03;34.24;100912.83;1761204;80;21468;-50